Time;durP1;ratioP1;P1;durP2;ratioP2;P2;SDS_P1;SDS_P2;PMS_P1;PMS_P2;Temp;Humidity;BMP_temperature;BMP_pressure;BME280_temperature;BME280_humidity;BME280_pressure;Samples;Min_cycle;Max_cycle;Signal;HPM_P1;HPM_P2
2022/07/04 00:00:32;;;;;;;4.88;1.55;;;26.90;96.70;;;;;;4871763;29;20125;-83
2022/07/04 00:03:00;;;;;;;3.20;1.50;;;26.80;96.70;;;;;;4873537;29;20071;-83
2022/07/04 00:05:30;;;;;;;5.22;1.85;;;26.70;96.70;;;;;;4874277;29;20974;-84
2022/07/04 00:07:59;;;;;;;4.68;1.70;;;26.60;96.70;;;;;;4871190;29;20045;-83
2022/07/04 00:10:28;;;;;;;2.65;1.40;;;26.70;96.70;;;;;;4868783;29;20105;-84
2022/07/04 00:12:56;;;;;;;3.35;1.75;;;26.70;96.70;;;;;;4872323;29;20112;-84
2022/07/04 00:15:25;;;;;;;3.08;1.40;;;26.60;96.70;;;;;;4870615;29;20048;-84
2022/07/04 00:17:53;;;;;;;4.70;1.42;;;26.70;96.70;;;;;;4869953;29;20061;-84
2022/07/04 00:20:22;;;;;;;4.03;1.80;;;26.70;96.70;;;;;;4869647;29;20108;-83
2022/07/04 00:22:52;;;;;;;4.32;1.50;;;26.80;96.70;;;;;;4871353;29;20060;-84
2022/07/04 00:25:20;;;;;;;4.03;1.73;;;26.90;96.70;;;;;;4885657;29;20080;-83
2022/07/04 00:27:48;;;;;;;2.58;1.67;;;26.90;96.70;;;;;;4867258;29;20061;-83
2022/07/04 00:30:17;;;;;;;6.03;1.65;;;26.80;96.70;;;;;;4868010;29;20049;-84
2022/07/04 00:32:45;;;;;;;5.32;1.80;;;27.00;96.70;;;;;;4871384;29;20919;-83
2022/07/04 00:35:13;;;;;;;5.97;1.77;;;26.90;96.70;;;;;;4864256;29;20059;-84
2022/07/04 00:37:42;;;;;;;3.42;1.30;;;27.00;96.70;;;;;;4870471;29;20048;-83
2022/07/04 00:40:12;;;;;;;3.63;1.45;;;27.00;96.70;;;;;;4869078;29;20093;-84
2022/07/04 00:42:49;;;;;;;2.58;1.50;;;27.10;96.70;;;;;;4854323;29;20064;-84
2022/07/04 00:45:17;;;;;;;3.65;1.77;;;27.10;96.70;;;;;;4866643;29;20705;-84
2022/07/04 00:47:45;;;;;;;4.25;1.67;;;27.00;96.70;;;;;;4869695;29;20045;-84
2022/07/04 00:50:14;;;;;;;3.40;1.48;;;26.90;96.70;;;;;;4871348;29;20052;-84
2022/07/04 00:52:42;;;;;;;2.00;1.17;;;26.80;96.70;;;;;;4853321;29;20056;-84
2022/07/04 00:55:11;;;;;;;3.35;1.45;;;26.70;96.70;;;;;;4869581;29;20128;-84
2022/07/04 00:57:40;;;;;;;3.42;1.25;;;26.70;96.70;;;;;;4859260;29;20108;-84
2022/07/04 01:00:09;;;;;;;3.03;1.63;;;26.70;96.70;;;;;;4870653;29;20492;-84
2022/07/04 01:02:37;;;;;;;3.65;1.52;;;26.80;96.70;;;;;;4856759;29;20160;-84
2022/07/04 01:05:06;;;;;;;2.17;1.30;;;26.80;96.70;;;;;;4870024;29;20056;-84
2022/07/04 01:07:36;;;;;;;2.15;1.30;;;26.90;96.70;;;;;;4863906;29;20097;-85
2022/07/04 01:10:05;;;;;;;3.28;1.23;;;26.90;96.70;;;;;;4856156;29;20053;-85
2022/07/04 01:12:35;;;;;;;2.95;1.52;;;26.70;96.70;;;;;;4870679;29;20060;-84
2022/07/04 01:15:05;;;;;;;4.80;1.73;;;26.80;96.70;;;;;;4870414;29;20056;-84
2022/07/04 01:17:33;;;;;;;4.32;1.50;;;26.80;96.70;;;;;;4864207;29;20045;-83
2022/07/04 01:20:02;;;;;;;3.55;1.63;;;26.90;96.70;;;;;;4871494;29;20049;-84
2022/07/04 01:22:32;;;;;;;2.90;1.33;;;27.00;96.70;;;;;;4867021;29;20044;-82
2022/07/04 01:25:00;;;;;;;5.97;1.80;;;27.00;96.70;;;;;;4867627;29;20629;-82
2022/07/04 01:27:28;;;;;;;4.72;1.45;;;26.90;96.70;;;;;;4861724;29;20052;-82
2022/07/04 01:29:56;;;;;;;3.95;1.75;;;26.90;96.70;;;;;;4882810;29;20159;-81
2022/07/04 01:32:24;;;;;;;2.88;1.25;;;26.80;96.70;;;;;;4869758;29;20128;-82
2022/07/04 01:34:53;;;;;;;2.85;1.65;;;26.80;96.70;;;;;;4868754;29;20152;-81
2022/07/04 01:37:21;;;;;;;3.05;1.40;;;26.70;96.70;;;;;;4867636;29;20056;-82
2022/07/04 01:39:51;;;;;;;2.75;1.33;;;26.70;96.70;;;;;;4861214;29;20049;-82
2022/07/04 01:42:19;;;;;;;3.88;1.40;;;26.70;96.70;;;;;;4867940;29;20059;-81
2022/07/04 01:44:47;;;;;;;4.88;1.42;;;26.80;96.70;;;;;;4870046;29;20483;-82
2022/07/04 01:47:16;;;;;;;2.47;1.10;;;26.70;96.70;;;;;;4870381;29;20069;-81
2022/07/04 01:49:44;;;;;;;2.75;1.08;;;26.80;96.70;;;;;;4871785;29;20152;-81
2022/07/04 01:52:13;;;;;;;3.67;1.25;;;26.70;96.70;;;;;;4873019;29;20555;-81
2022/07/04 01:54:41;;;;;;;2.83;1.13;;;26.70;96.70;;;;;;4874529;29;20055;-81
2022/07/04 01:57:12;;;;;;;1.58;1.00;;;26.70;96.70;;;;;;4871105;29;20139;-81
2022/07/04 02:02:28;;;;;;;3.15;1.17;;;26.60;96.70;;;;;;4869013;29;20077;-81
2022/07/04 02:05:01;;;;;;;4.13;1.73;;;26.60;96.70;;;;;;4870449;29;20045;-82
2022/07/04 02:07:32;;;;;;;2.67;1.40;;;26.40;96.70;;;;;;4860647;29;20062;-76
2022/07/04 02:10:00;;;;;;;3.38;1.45;;;26.40;96.70;;;;;;4881500;29;20037;-77
2022/07/04 02:15:16;;;;;;;3.13;1.20;;;26.50;96.70;;;;;;4859312;29;20341;-75
2022/07/04 02:17:44;;;;;;;2.20;1.15;;;26.50;96.70;;;;;;4868104;29;20389;-81
2022/07/04 02:20:12;;;;;;;2.15;1.30;;;26.40;96.70;;;;;;4868369;29;20057;-81
2022/07/04 02:22:41;;;;;;;5.78;1.50;;;26.30;96.70;;;;;;4871770;29;20131;-82
2022/07/04 02:25:11;;;;;;;3.15;1.42;;;26.40;96.70;;;;;;4871137;29;20141;-84
2022/07/04 02:27:41;;;;;;;0.98;0.88;;;26.30;96.70;;;;;;4872258;29;20152;-78
2022/07/04 02:30:09;;;;;;;3.45;1.40;;;26.20;96.70;;;;;;4864402;29;20045;-78
2022/07/04 02:32:38;;;;;;;4.85;1.30;;;26.10;96.70;;;;;;4867228;29;20072;-78
2022/07/04 02:35:07;;;;;;;3.28;1.48;;;26.00;96.70;;;;;;4867506;29;20053;-78
2022/07/04 02:37:36;;;;;;;3.05;1.95;;;26.10;96.70;;;;;;4864287;29;20041;-78
2022/07/04 02:40:05;;;;;;;2.67;2.03;;;26.00;96.70;;;;;;4863451;29;20053;-78
2022/07/04 02:42:34;;;;;;;4.22;1.95;;;26.10;96.70;;;;;;4866397;29;20060;-77
2022/07/04 02:45:05;;;;;;;3.28;1.80;;;26.10;96.70;;;;;;4881158;29;20132;-77
2022/07/04 02:47:34;;;;;;;2.83;1.52;;;26.10;96.70;;;;;;4865943;29;20419;-79
2022/07/04 02:50:03;;;;;;;2.47;1.45;;;26.10;96.70;;;;;;4860856;29;20085;-77
2022/07/04 02:52:32;;;;;;;2.50;1.40;;;26.20;96.70;;;;;;4858507;29;20076;-77
2022/07/04 02:55:00;;;;;;;4.28;1.90;;;26.10;96.70;;;;;;4862645;29;20068;-78
2022/07/04 02:57:28;;;;;;;1.88;1.45;;;26.00;96.70;;;;;;4863324;29;20041;-78
2022/07/04 02:59:56;;;;;;;2.58;1.92;;;26.00;96.70;;;;;;4881373;29;20753;-78
2022/07/04 03:02:25;;;;;;;3.88;2.00;;;26.00;96.70;;;;;;4867441;29;20052;-78
2022/07/04 03:04:53;;;;;;;5.13;1.60;;;26.00;96.70;;;;;;4868799;29;20542;-78
2022/07/04 03:07:21;;;;;;;2.97;1.45;;;26.00;96.70;;;;;;4867367;29;20108;-78
2022/07/04 03:09:49;;;;;;;3.53;1.67;;;25.90;96.70;;;;;;4864552;29;20516;-79
2022/07/04 03:12:17;;;;;;;5.03;1.33;;;25.90;96.70;;;;;;4865603;29;20049;-79
2022/07/04 03:14:45;;;;;;;4.05;1.48;;;25.90;96.70;;;;;;4867514;29;20049;-78
2022/07/04 03:17:14;;;;;;;3.42;1.77;;;25.90;96.70;;;;;;4865667;29;20080;-78
2022/07/04 03:19:44;;;;;;;2.30;1.55;;;25.80;96.70;;;;;;4867321;29;20067;-80
2022/07/04 03:22:12;;;;;;;3.70;1.85;;;25.30;96.70;;;;;;4865093;29;20053;-79
2022/07/04 03:24:40;;;;;;;4.13;2.00;;;25.00;96.70;;;;;;4880035;29;20041;-78
2022/07/04 03:27:08;;;;;;;3.13;1.80;;;25.00;96.70;;;;;;4864902;29;20052;-78
2022/07/04 03:29:36;;;;;;;3.35;1.70;;;25.00;96.70;;;;;;4866190;29;20069;-78
2022/07/04 03:32:05;;;;;;;5.05;2.22;;;25.00;96.70;;;;;;4861558;29;20046;-77
2022/07/04 03:34:33;;;;;;;4.80;2.55;;;25.00;96.70;;;;;;4881166;29;20045;-78
2022/07/04 03:37:02;;;;;;;4.07;3.17;;;25.10;96.70;;;;;;4883504;29;20722;-79
2022/07/04 03:39:31;;;;;;;5.05;2.78;;;25.00;96.70;;;;;;4862672;29;20147;-78
2022/07/04 03:41:59;;;;;;;3.75;2.28;;;24.80;96.70;;;;;;4864467;29;20049;-78
2022/07/04 03:44:27;;;;;;;3.30;2.05;;;24.80;96.70;;;;;;4877107;29;20041;-78
2022/07/04 03:46:55;;;;;;;2.28;1.60;;;24.90;96.70;;;;;;4869000;29;20576;-77
2022/07/04 03:49:23;;;;;;;2.70;1.65;;;25.00;96.70;;;;;;4849374;29;20531;-78
2022/07/04 03:51:51;;;;;;;3.72;1.58;;;25.00;96.70;;;;;;4871778;29;20049;-83
2022/07/04 03:54:20;;;;;;;3.95;1.60;;;25.10;96.70;;;;;;4852637;29;20049;-83
2022/07/04 03:56:48;;;;;;;3.05;1.30;;;25.10;96.70;;;;;;4871778;29;20044;-83
2022/07/04 03:59:16;;;;;;;3.53;1.45;;;25.10;96.70;;;;;;4871729;29;20067;-84
2022/07/04 04:01:44;;;;;;;4.18;1.45;;;25.10;96.70;;;;;;4868206;29;20060;-83
2022/07/04 04:06:59;;;;;;;3.13;1.48;;;25.30;96.70;;;;;;4872409;29;20052;-82
2022/07/04 04:09:29;;;;;;;3.70;1.80;;;25.40;96.70;;;;;;4863744;29;20041;-83
2022/07/04 04:11:57;;;;;;;4.35;1.83;;;25.40;96.70;;;;;;4870497;29;20059;-84
2022/07/04 04:14:27;;;;;;;3.42;1.55;;;25.40;96.70;;;;;;4871461;29;20381;-82
2022/07/04 04:16:55;;;;;;;4.63;1.52;;;25.50;96.70;;;;;;4881344;29;20638;-83
2022/07/04 04:19:23;;;;;;;2.53;1.20;;;25.60;96.70;;;;;;4874019;29;20057;-86
2022/07/04 04:21:51;;;;;;;2.10;1.25;;;25.60;96.70;;;;;;4868363;29;20576;-81
2022/07/04 04:24:19;;;;;;;9.05;1.70;;;25.60;96.70;;;;;;4874485;29;20419;-81
2022/07/04 04:26:49;;;;;;;3.20;1.40;;;25.50;96.70;;;;;;4873688;29;20049;-83
2022/07/04 04:29:17;;;;;;;3.92;2.38;;;25.10;96.70;;;;;;4867513;29;20048;-82
2022/07/04 04:31:45;;;;;;;3.83;1.65;;;24.80;96.70;;;;;;4858534;29;20467;-84
2022/07/04 04:34:13;;;;;;;3.83;1.67;;;24.60;96.70;;;;;;4889083;29;20133;-83
2022/07/04 04:36:41;;;;;;;3.80;1.70;;;24.40;96.70;;;;;;4883831;29;20667;-83
2022/07/04 04:39:09;;;;;;;3.15;1.60;;;24.30;96.70;;;;;;4870404;29;20459;-84
2022/07/04 04:41:37;;;;;;;2.88;1.55;;;24.40;96.70;;;;;;4873290;29;20136;-82
2022/07/04 04:44:11;;;;;;;4.65;1.80;;;24.30;96.70;;;;;;4875268;29;20510;-82
2022/07/04 04:46:39;;;;;;;3.17;1.70;;;24.20;96.70;;;;;;4874228;29;20049;-84
2022/07/04 04:49:07;;;;;;;5.00;1.80;;;24.30;96.70;;;;;;4854218;29;20049;-84
2022/07/04 04:51:36;;;;;;;3.42;1.65;;;24.40;96.70;;;;;;4858720;29;20824;-84
2022/07/04 04:54:04;;;;;;;4.07;2.20;;;24.40;96.70;;;;;;4873439;29;20119;-83
2022/07/04 04:56:32;;;;;;;4.82;2.05;;;24.30;96.70;;;;;;4873393;29;20069;-83
2022/07/04 04:59:00;;;;;;;4.20;1.88;;;24.30;96.70;;;;;;4875199;29;20087;-84
2022/07/04 05:01:29;;;;;;;4.90;2.35;;;24.20;96.70;;;;;;4873592;29;20052;-84
2022/07/04 05:04:14;;;;;;;3.83;1.83;;;24.30;96.70;;;;;;4873320;29;20112;-77
2022/07/04 05:06:42;;;;;;;4.18;2.22;;;24.20;96.70;;;;;;4885245;29;20053;-78
2022/07/04 05:09:10;;;;;;;4.15;2.40;;;24.30;96.70;;;;;;4870460;29;20112;-78
2022/07/04 05:11:38;;;;;;;6.30;2.72;;;24.30;96.70;;;;;;4854161;29;20101;-78
2022/07/04 05:14:06;;;;;;;5.40;2.80;;;24.30;96.70;;;;;;4870464;29;20052;-78
2022/07/04 05:16:35;;;;;;;5.30;2.65;;;24.30;96.70;;;;;;4867794;29;20651;-78
2022/07/04 05:19:04;;;;;;;3.35;2.40;;;24.40;96.70;;;;;;4866756;29;20088;-77
2022/07/04 05:21:31;;;;;;;7.18;3.30;;;24.50;96.70;;;;;;4869515;29;20139;-77
2022/07/04 05:23:59;;;;;;;8.38;3.45;;;24.60;96.70;;;;;;4868968;29;20476;-76
2022/07/04 05:26:27;;;;;;;5.68;2.72;;;24.70;96.70;;;;;;4868784;29;20048;-77
2022/07/04 05:28:56;;;;;;;6.70;3.20;;;24.80;96.70;;;;;;4886041;29;20087;-77
2022/07/04 05:31:24;;;;;;;5.40;3.08;;;24.80;96.70;;;;;;4868201;29;20045;-77
2022/07/04 05:33:54;;;;;;;6.40;3.38;;;24.80;96.70;;;;;;4869261;29;20520;-77
2022/07/04 05:36:24;;;;;;;6.97;3.13;;;24.90;96.70;;;;;;4868641;29;20076;-77
2022/07/04 05:38:57;;;;;;;5.90;3.20;;;24.90;96.70;;;;;;4869510;29;20737;-77
2022/07/04 05:41:25;;;;;;;5.65;3.97;;;25.00;96.70;;;;;;4869694;29;20469;-77
2022/07/04 05:43:53;;;;;;;5.30;3.72;;;25.10;96.70;;;;;;4869111;29;20132;-76
2022/07/04 05:46:26;;;;;;;8.98;4.30;;;25.10;96.70;;;;;;4868539;29;20085;-77
2022/07/04 05:48:55;;;;;;;7.30;3.95;;;25.00;96.70;;;;;;4869443;29;20705;-78
2022/07/04 05:51:23;;;;;;;8.32;4.00;;;25.00;96.70;;;;;;4868090;29;20041;-77
2022/07/04 05:53:51;;;;;;;7.65;3.78;;;25.00;96.70;;;;;;4868750;29;20132;-77
2022/07/04 05:56:19;;;;;;;5.03;3.47;;;25.00;96.70;;;;;;4852313;29;20049;-77
2022/07/04 05:58:47;;;;;;;5.70;3.67;;;25.10;96.70;;;;;;4885308;29;20109;-78
2022/07/04 06:01:15;;;;;;;7.80;3.67;;;25.20;96.70;;;;;;4871230;29;20045;-84
2022/07/04 06:03:43;;;;;;;6.95;4.00;;;25.30;96.70;;;;;;4873218;29;20049;-84
2022/07/04 06:06:12;;;;;;;5.60;3.28;;;25.40;96.70;;;;;;4888319;29;20497;-84
2022/07/04 06:08:40;;;;;;;6.97;3.78;;;25.40;96.70;;;;;;4872959;29;20553;-84
2022/07/04 06:11:08;;;;;;;6.15;4.03;;;25.40;96.70;;;;;;4872811;29;20049;-84
2022/07/04 06:13:36;;;;;;;6.43;4.05;;;25.40;96.70;;;;;;4873023;29;20041;-84
2022/07/04 06:16:04;;;;;;;6.75;3.42;;;25.50;96.70;;;;;;4873943;29;20045;-84
2022/07/04 06:18:31;;;;;;;7.97;4.22;;;25.50;96.70;;;;;;4872856;29;20053;-83
2022/07/04 06:20:59;;;;;;;8.20;4.00;;;25.60;96.70;;;;;;4873410;29;20544;-83
2022/07/04 06:23:28;;;;;;;6.60;3.63;;;25.60;96.70;;;;;;4873920;29;20053;-84
2022/07/04 06:25:56;;;;;;;6.13;3.47;;;25.70;96.70;;;;;;4869247;29;20052;-84
2022/07/04 06:28:24;;;;;;;6.60;3.72;;;25.80;96.70;;;;;;4874495;29;20148;-83
2022/07/04 06:31:12;;;;;;;8.48;3.83;;;25.90;96.70;;;;;;4878434;29;20136;-84
2022/07/04 06:36:26;;;;;;;4.63;3.20;;;26.00;96.70;;;;;;4887597;29;20054;-83
2022/07/04 06:38:55;;;;;;;5.68;3.13;;;26.10;96.70;;;;;;4862039;29;20045;-84
2022/07/04 06:41:23;;;;;;;9.65;3.38;;;26.20;96.70;;;;;;4875793;29;20049;-83
2022/07/04 06:43:51;;;;;;;4.60;2.40;;;26.30;96.70;;;;;;4875485;29;20061;-83
2022/07/04 06:46:19;;;;;;;5.78;2.28;;;26.40;96.70;;;;;;4875862;29;20059;-83
2022/07/04 06:48:47;;;;;;;5.85;2.65;;;26.40;96.70;;;;;;4879928;29;20096;-82
2022/07/04 06:51:15;;;;;;;4.82;2.78;;;26.40;96.70;;;;;;4876141;29;20124;-83
2022/07/04 06:53:45;;;;;;;5.28;2.53;;;26.50;96.70;;;;;;4874306;29;20492;-77
2022/07/04 06:56:15;;;;;;;6.95;2.58;;;26.50;96.70;;;;;;4873759;29;20515;-77
2022/07/04 06:58:42;;;;;;;3.97;2.80;;;26.60;96.70;;;;;;4887582;29;20575;-77
2022/07/04 07:01:10;;;;;;;4.80;3.13;;;26.60;96.70;;;;;;4872078;29;20055;-78
2022/07/04 07:03:38;;;;;;;4.68;2.60;;;26.70;96.70;;;;;;4873102;29;20052;-77
2022/07/04 07:06:06;;;;;;;7.03;3.03;;;26.70;96.70;;;;;;4875406;29;20116;-77
2022/07/04 07:08:34;;;;;;;6.30;2.80;;;26.70;96.70;;;;;;4872440;29;20073;-78
2022/07/04 07:11:12;;;;;;;5.43;2.20;;;26.70;96.70;;;;;;4872480;29;20053;-76
2022/07/04 07:13:44;;;;;;;5.90;2.20;;;26.80;96.70;;;;;;4872553;29;20044;-77
2022/07/04 07:16:13;;;;;;;9.45;2.60;;;26.90;96.70;;;;;;4872920;29;20053;-77
2022/07/04 07:18:41;;;;;;;7.40;2.90;;;26.80;96.70;;;;;;4870449;29;20053;-78
2022/07/04 07:21:09;;;;;;;3.47;2.30;;;26.90;96.70;;;;;;4868470;29;20050;-76
2022/07/04 07:23:39;;;;;;;3.17;2.25;;;26.90;96.70;;;;;;4871982;29;20086;-77
2022/07/04 07:26:07;;;;;;;5.28;2.33;;;27.00;96.70;;;;;;4874802;29;20091;-83
2022/07/04 07:28:35;;;;;;;5.40;2.10;;;27.00;96.70;;;;;;4883598;29;20049;-83
2022/07/04 07:31:05;;;;;;;5.70;2.45;;;27.00;96.70;;;;;;4862946;29;20045;-84
2022/07/04 07:33:32;;;;;;;5.22;2.35;;;27.10;96.70;;;;;;4867278;29;20048;-83
2022/07/04 07:36:00;;;;;;;3.85;1.88;;;27.10;96.70;;;;;;4871479;29;20053;-83
2022/07/04 07:38:28;;;;;;;5.93;2.15;;;27.10;96.70;;;;;;4876453;29;20125;-82
2022/07/04 07:40:56;;;;;;;4.55;2.13;;;27.30;96.70;;;;;;4870309;29;20057;-78
2022/07/04 07:43:24;;;;;;;7.35;2.47;;;27.40;96.70;;;;;;4872390;29;20566;-77
2022/07/04 07:45:52;;;;;;;4.15;2.35;;;27.50;96.70;;;;;;4876003;29;20097;-77
2022/07/04 07:48:21;;;;;;;4.88;2.05;;;27.60;96.70;;;;;;4851502;29;20077;-77
2022/07/04 07:50:49;;;;;;;6.38;2.28;;;27.60;96.70;;;;;;4853694;29;20046;-78
2022/07/04 07:53:17;;;;;;;5.97;2.22;;;27.70;96.70;;;;;;4873859;29;20473;-79
2022/07/04 07:55:46;;;;;;;4.13;1.98;;;27.80;96.70;;;;;;4869533;29;20665;-78
2022/07/04 07:58:14;;;;;;;6.03;2.03;;;27.80;96.70;;;;;;4870624;29;20073;-77
2022/07/04 08:00:42;;;;;;;5.18;2.17;;;28.00;96.70;;;;;;4871481;29;20128;-76
2022/07/04 08:06:14;;;;;;;5.30;2.17;;;28.00;96.70;;;;;;4869622;29;20519;-77
2022/07/04 08:08:42;;;;;;;3.97;2.22;;;28.20;96.70;;;;;;4852539;29;20061;-77
2022/07/04 08:11:10;;;;;;;3.60;1.90;;;28.20;96.70;;;;;;4883388;29;20053;-78
2022/07/04 08:13:39;;;;;;;4.72;2.25;;;28.30;96.70;;;;;;4855542;29;20139;-78
2022/07/04 08:16:07;;;;;;;4.05;1.90;;;28.40;96.70;;;;;;4868762;29;20235;-76
2022/07/04 08:18:37;;;;;;;6.75;2.60;;;28.50;96.70;;;;;;4871761;29;20136;-76
2022/07/04 08:21:07;;;;;;;5.18;2.22;;;28.60;96.70;;;;;;4869962;29;20569;-76
2022/07/04 08:23:40;;;;;;;7.07;2.95;;;28.60;96.70;;;;;;4856177;29;20103;-77
2022/07/04 08:26:28;;;;;;;8.65;3.28;;;28.60;96.70;;;;;;4884484;29;20052;-75
2022/07/04 08:28:57;;;;;;;6.10;2.78;;;28.60;96.70;;;;;;4870989;29;20076;-76
2022/07/04 08:31:25;;;;;;;6.35;2.50;;;28.80;96.70;;;;;;4869533;29;20065;-77
2022/07/04 08:34:15;;;;;;;5.63;2.85;;;28.80;96.70;;;;;;4870876;29;20045;-77
2022/07/04 08:36:45;;;;;;;6.40;3.33;;;28.80;96.70;;;;;;4885619;29;20080;-78
2022/07/04 08:39:13;;;;;;;5.68;2.45;;;29.00;96.70;;;;;;4869749;29;20459;-77
2022/07/04 08:41:41;;;;;;;7.00;2.95;;;29.10;96.70;;;;;;4884698;29;20049;-77
2022/07/04 08:44:32;;;;;;;2.78;2.25;;;29.10;96.70;;;;;;4810289;29;20062;-78
2022/07/04 08:47:01;;;;;;;5.82;2.80;;;29.20;96.70;;;;;;4815973;29;20065;-77
2022/07/04 08:49:33;;;;;;;5.07;2.60;;;29.20;96.70;;;;;;4782831;29;20169;-76
2022/07/04 08:52:04;;;;;;;4.75;2.65;;;29.30;96.70;;;;;;4813802;29;20071;-76
2022/07/04 09:00:08;;;;;;;6.53;2.80;;;29.50;96.70;;;;;;4792408;29;21216;-76
2022/07/04 09:02:39;;;;;;;5.50;2.88;;;29.60;96.70;;;;;;4843930;29;20053;-77
2022/07/04 09:05:09;;;;;;;4.72;3.20;;;29.70;96.70;;;;;;4869319;29;20143;-77
2022/07/04 09:07:37;;;;;;;8.40;3.67;;;29.90;96.70;;;;;;4870783;29;20921;-77
2022/07/04 09:10:07;;;;;;;7.55;3.90;;;29.90;96.70;;;;;;4879946;29;20052;-77
2022/07/04 09:12:35;;;;;;;5.85;3.47;;;30.00;96.70;;;;;;4870215;29;20139;-77
2022/07/04 09:15:25;;;;;;;10.43;3.95;;;30.00;96.70;;;;;;4870610;29;20131;-77
2022/07/04 09:17:53;;;;;;;6.50;3.45;;;30.10;96.70;;;;;;4871473;29;20068;-78
2022/07/04 09:20:24;;;;;;;8.43;4.07;;;30.20;96.70;;;;;;4869584;29;20104;-76
2022/07/04 09:22:54;;;;;;;7.60;3.42;;;30.20;96.70;;;;;;4883310;29;20585;-77
2022/07/04 09:25:23;;;;;;;4.97;3.33;;;30.40;96.70;;;;;;4870160;29;20056;-76
2022/07/04 09:27:53;;;;;;;6.35;3.60;;;30.60;96.70;;;;;;4879040;29;20053;-76
2022/07/04 09:30:23;;;;;;;8.98;3.80;;;30.70;96.70;;;;;;4854637;29;20071;-77
2022/07/04 09:32:54;;;;;;;6.28;3.70;;;30.80;96.70;;;;;;4868163;29;20055;-77
2022/07/04 09:35:24;;;;;;;9.15;3.00;;;30.90;96.70;;;;;;4869691;29;20560;-76
2022/07/04 09:37:54;;;;;;;8.93;3.10;;;30.90;96.70;;;;;;4869862;29;20057;-77
2022/07/04 09:40:25;;;;;;;7.32;3.67;;;30.90;96.70;;;;;;4869606;29;20068;-76
2022/07/04 09:42:55;;;;;;;4.90;3.30;;;31.00;96.70;;;;;;4869799;29;20049;-77
2022/07/04 09:45:24;;;;;;;6.57;3.40;;;31.00;96.70;;;;;;4869419;29;20106;-76
2022/07/04 09:47:55;;;;;;;13.20;6.45;;;31.00;96.70;;;;;;4869862;29;20043;-76
2022/07/04 09:50:28;;;;;;;4.78;3.20;;;31.00;96.70;;;;;;4870770;29;20048;-79
2022/07/04 09:52:58;;;;;;;5.88;3.45;;;31.20;96.70;;;;;;4885927;29;20449;-81
2022/07/04 09:55:27;;;;;;;6.75;2.95;;;31.40;96.70;;;;;;4882452;29;20057;-78
2022/07/04 09:57:59;;;;;;;8.18;3.00;;;31.50;96.70;;;;;;4857322;29;20161;-86
2022/07/04 10:00:28;;;;;;;6.28;3.10;;;31.60;96.70;;;;;;4865369;29;20034;-76
2022/07/04 10:03:14;;;;;;;9.80;3.63;;;31.70;96.70;;;;;;4888555;29;20044;-78
2022/07/04 10:05:44;;;;;;;;;;;31.80;96.70;;;;;;4871423;29;20048;-78
2022/07/04 10:08:13;;;;;;;4.82;2.67;;;32.00;96.70;;;;;;4886391;29;19927;-78
2022/07/04 10:10:42;;;;;;;6.95;3.30;;;31.90;96.70;;;;;;4873861;29;20995;-78
2022/07/04 10:13:12;;;;;;;4.43;3.10;;;31.90;96.70;;;;;;4874322;29;20072;-78
2022/07/04 10:15:42;;;;;;;5.10;2.95;;;32.10;96.70;;;;;;4874008;29;20166;-77
2022/07/04 10:18:11;;;;;;;6.40;2.50;;;32.20;96.70;;;;;;4878160;29;20072;-77
2022/07/04 10:20:41;;;;;;;6.25;2.47;;;32.40;96.70;;;;;;4871956;29;20097;-78
2022/07/04 10:23:12;;;;;;;2.83;2.03;;;32.60;96.70;;;;;;4869275;29;21467;-78
2022/07/04 10:25:46;;;;;;;4.53;2.42;;;32.80;96.70;;;;;;4872249;29;20056;-78
2022/07/04 10:28:19;;;;;;;4.32;2.47;;;33.10;96.70;;;;;;4872412;29;20048;-78
2022/07/04 10:30:51;;;;;;;4.88;2.47;;;33.30;96.70;;;;;;4875569;29;20045;-79
2022/07/04 10:33:30;;;;;;;6.13;2.78;;;33.50;96.70;;;;;;4871811;29;20403;-79
2022/07/04 10:36:03;;;;;;;6.03;2.38;;;33.50;96.70;;;;;;4875454;29;20092;-78
2022/07/04 10:38:34;;;;;;;6.47;2.20;;;33.60;96.70;;;;;;4873876;29;20060;-79
2022/07/04 10:41:03;;;;;;;3.63;2.00;;;33.70;96.70;;;;;;4874544;29;20056;-78
2022/07/04 10:43:52;;;;;;;3.17;1.40;;;33.80;96.70;;;;;;4869083;29;20052;-79
2022/07/04 10:46:26;;;;;;;4.40;1.52;;;33.80;94.70;;;;;;4873576;29;20045;-78
2022/07/04 10:48:57;;;;;;;2.95;1.60;;;33.80;93.70;;;;;;4868189;29;20049;-78
2022/07/04 10:51:43;;;;;;;5.53;1.77;;;34.00;92.80;;;;;;4857246;29;20052;-77
2022/07/04 10:54:14;;;;;;;;;;;33.90;92.00;;;;;;4872921;29;20486;-77
2022/07/04 10:56:49;;;;;;;5.65;1.52;;;34.10;92.60;;;;;;4874005;29;19976;-78
2022/07/04 10:59:20;;;;;;;4.25;1.73;;;34.20;93.60;;;;;;4872191;29;20312;-77
2022/07/04 11:01:51;;;;;;;3.58;2.08;;;34.20;93.80;;;;;;4873483;29;20105;-79
2022/07/04 11:04:51;;;;;;;2.65;1.70;;;34.20;93.80;;;;;;4872491;29;20140;-77
2022/07/04 11:07:21;;;;;;;5.13;1.90;;;34.30;91.30;;;;;;4868268;29;20500;-78
2022/07/04 11:10:22;;;;;;;1.83;1.27;;;34.40;90.80;;;;;;4867456;29;20141;-78
2022/07/04 11:13:18;;;;;;;5.03;1.50;;;34.50;91.00;;;;;;4872137;29;20654;-77
2022/07/04 11:16:07;;;;;;;4.65;1.25;;;34.60;90.90;;;;;;4887230;29;20053;-78
2022/07/04 11:18:41;;;;;;;7.40;1.83;;;34.70;88.80;;;;;;4872135;29;20538;-78
2022/07/04 11:21:21;;;;;;;7.60;1.30;;;34.80;88.20;;;;;;4865332;29;20148;-78
2022/07/04 11:23:51;;;;;;;3.25;1.63;;;34.90;85.30;;;;;;4871101;29;20049;-78
2022/07/04 11:26:23;;;;;;;12.68;1.80;;;34.90;86.20;;;;;;4871135;29;20065;-78
2022/07/04 11:28:53;;;;;;;5.03;1.65;;;35.00;87.50;;;;;;4855298;29;20045;-77
2022/07/04 11:31:33;;;;;;;3.15;1.30;;;35.20;86.60;;;;;;4872654;29;20041;-77
2022/07/04 11:34:09;;;;;;;5.05;1.27;;;35.20;84.70;;;;;;4871812;29;20411;-78
2022/07/04 11:36:40;;;;;;;9.45;1.40;;;35.30;83.80;;;;;;4872080;29;20099;-78
2022/07/04 11:39:11;;;;;;;4.57;1.15;;;35.30;83.90;;;;;;4867665;29;20448;-80
2022/07/04 11:47:24;;;;;;;7.50;1.88;;;35.20;87.00;;;;;;4857724;29;20056;-78
2022/07/04 11:49:55;;;;;;;6.70;1.40;;;35.20;88.70;;;;;;4871803;29;20083;-79
2022/07/04 11:52:25;;;;;;;3.40;1.30;;;35.30;86.30;;;;;;4867497;29;20117;-78
2022/07/04 11:55:17;;;;;;;5.43;1.13;;;35.20;87.10;;;;;;4859648;29;20045;-78
2022/07/04 11:57:50;;;;;;;3.80;1.27;;;35.30;87.00;;;;;;4871579;29;20560;-77
2022/07/04 12:00:20;;;;;;;2.60;0.98;;;35.40;86.10;;;;;;4871014;29;20068;-78
2022/07/04 12:02:49;;;;;;;4.10;1.25;;;35.50;88.00;;;;;;4872641;29;20052;-77
2022/07/04 12:05:18;;;;;;;6.22;1.92;;;35.40;86.80;;;;;;4871798;29;20057;-79
2022/07/04 12:07:48;;;;;;;3.80;1.10;;;35.50;86.10;;;;;;4870185;29;20464;-79
2022/07/04 12:10:37;;;;;;;2.85;1.02;;;35.50;84.80;;;;;;4869159;29;20131;-77
2022/07/04 12:13:14;;;;;;;5.10;1.33;;;35.40;84.20;;;;;;4872962;29;20674;-80
2022/07/04 12:15:43;;;;;;;4.43;1.00;;;35.50;84.10;;;;;;4868138;29;20049;-79
2022/07/04 12:18:19;;;;;;;4.43;1.10;;;35.60;80.80;;;;;;4874045;29;20618;-80
2022/07/04 12:20:49;;;;;;;10.00;1.33;;;35.60;78.40;;;;;;4870199;29;20571;-80
2022/07/04 12:23:19;;;;;;;7.63;1.10;;;35.40;78.20;;;;;;4871118;29;20077;-79
2022/07/04 12:25:49;;;;;;;4.85;1.20;;;35.50;77.60;;;;;;4866562;29;20049;-79
2022/07/04 12:28:19;;;;;;;8.05;1.15;;;35.50;77.70;;;;;;4855318;29;20073;-79
2022/07/04 12:30:52;;;;;;;4.13;1.10;;;35.60;77.60;;;;;;4868379;29;20049;-79
2022/07/04 12:33:22;;;;;;;7.35;1.27;;;35.60;77.30;;;;;;4855244;29;20063;-79
2022/07/04 12:35:52;;;;;;;5.38;1.00;;;35.70;77.10;;;;;;4869449;29;20053;-79
2022/07/04 12:38:22;;;;;;;2.88;1.38;;;35.70;76.90;;;;;;4886323;29;20639;-80
2022/07/04 12:40:56;;;;;;;7.43;1.67;;;35.70;75.90;;;;;;4866096;29;20049;-79
2022/07/04 12:43:43;;;;;;;8.00;1.17;;;35.70;75.60;;;;;;4874257;29;20040;-79
2022/07/04 12:46:14;;;;;;;5.13;1.58;;;35.70;75.60;;;;;;4876238;29;20065;-79
2022/07/04 12:48:49;;;;;;;7.28;1.92;;;35.60;75.20;;;;;;4854132;29;20053;-78
2022/07/04 12:51:19;;;;;;;3.60;1.27;;;35.70;75.00;;;;;;4871670;29;20051;-79
2022/07/04 12:53:50;;;;;;;3.72;1.25;;;35.50;74.60;;;;;;4871239;29;20052;-80
2022/07/04 12:56:38;;;;;;;6.32;1.08;;;35.60;75.50;;;;;;4855349;29;20112;-80
2022/07/04 12:59:12;;;;;;;2.72;1.17;;;35.60;73.80;;;;;;4871129;29;20099;-78
2022/07/04 13:01:41;;;;;;;4.40;0.88;;;35.70;74.50;;;;;;4854709;29;20087;-79
2022/07/04 13:04:11;;;;;;;3.50;1.00;;;35.80;74.60;;;;;;4871661;29;20132;-80
2022/07/04 13:06:40;;;;;;;3.58;1.15;;;35.90;73.60;;;;;;4867892;29;20061;-80
2022/07/04 13:09:08;;;;;;;3.50;1.08;;;35.80;73.30;;;;;;4870498;29;20045;-80
2022/07/04 13:14:46;;;;;;;6.68;1.10;;;35.80;74.10;;;;;;4811337;29;20058;-80
2022/07/04 13:17:15;;;;;;;3.85;1.15;;;35.90;74.10;;;;;;4822986;29;20058;-80
2022/07/04 13:19:43;;;;;;;7.15;1.20;;;36.20;74.60;;;;;;4840771;29;20151;-78
2022/07/04 13:22:13;;;;;;;4.93;1.10;;;36.20;74.10;;;;;;4870541;29;20114;-78
2022/07/04 13:24:41;;;;;;;4.47;0.93;;;36.40;74.10;;;;;;4867331;29;20055;-79
2022/07/04 13:27:10;;;;;;;7.53;1.40;;;36.50;74.40;;;;;;4868981;29;20064;-80
2022/07/04 13:29:39;;;;;;;7.03;1.10;;;36.70;73.80;;;;;;4884939;29;20073;-80
2022/07/04 13:32:09;;;;;;;3.70;1.35;;;36.60;73.00;;;;;;4869850;29;20045;-79